Main page
METAR-TAF:

METAR-TAF

Airports :

Hamad International Airport

Doha, Qatar

latitude: 25-16-23N, longitude: 51-36-29E, elevation: 4 m

Current weather observation

The report was made 23 minutes ago, at 16:00 UTC
Wind 21 kt from the North/Northwest
Temperature 19°C
Humidity 46%
Pressure 1017 hPa
Visibility: 3000 m
Blowing dust

METAR: OTHH 171600Z 34021KT 3000 BLDU NSC 19/07 Q1017 NOSIG

Time: 19:23 (16:23 UTC)

Forecast

The report was made 5 hours and 20 minutes ago, at 11:03 UTC
Forecast valid from 17 at 12 UTC to 18 at 18 UTC
Wind 20 kt from the North/Northwest
Visibility: 8000 m
Temporary
from 17 at 12 UTC to 17 at 22 UTC
Wind 30 kt from the North/Northwest with gusts up to 40 kt
Visibility: 2000 m
Blowing dust
Temporary
from 17 at 12 UTC to 17 at 18 UTC
Visibility: 0600 m
widespread dust

TAF: OTHH 171103Z 1712/1818 33020KT 8000 NSC TEMPO 1712/1722 34030G40KT 2000 BLDU TEMPO 1712/1718 0600 DU

Weather observations and forecasts of more than 4000 airports (METAR and TAF reports).

The available stations are represented by yellow and red dots on the map.

Hover mouse over dot to see the name of the station.

Then click to see weather observations and forecasts.

To change the map : click on the green buttons with a black cross to zoom in, on the green button with a dash to zoom out, or on the green arrows for adjacent maps.


METAR-TAF: